Terminal Aerodrome Forecast
Issued by NWS

Home | Current Version | Previous Version | Text Only | Print | Product List | Glossary On
Versions: 1 2 3 4 5 6 7 8 9 10 11 12 13 14 15 16 17 18 19 20 21 22 23 24 25 26 27 28 29 30 31 32 33 34 35
191
FTUS43 KLSX 021136
TAFSUS
TAF
KSUS 021136Z 0212/0312 32005KT P6SM OVC045
      TEMPO 0212/0214 BKN015
     FM021400 31004KT P6SM OVC025
     FM021800 32008KT P6SM VCSH OVC035
     FM030200 VRB03KT P6SM SCT040=

USA.gov is the U.S. government's official web portal to all federal, state and local government web resources and services.